sensor_id;sensor_type;location;lat;lon;timestamp;P1;durP1;ratioP1;P2;durP2;ratioP2
7683;SDS011;3884;48.616;12.872;2023-02-28T00:00:09;7.10;;;5.07;;
7683;SDS011;3884;48.616;12.872;2023-02-28T00:02:38;5.83;;;4.60;;
7683;SDS011;3884;48.616;12.872;2023-02-28T00:05:06;5.97;;;4.97;;
7683;SDS011;3884;48.616;12.872;2023-02-28T00:07:35;6.10;;;4.97;;
7683;SDS011;3884;48.616;12.872;2023-02-28T00:10:03;5.43;;;4.73;;
7683;SDS011;3884;48.616;12.872;2023-02-28T00:12:34;5.93;;;5.30;;
7683;SDS011;3884;48.616;12.872;2023-02-28T00:15:01;5.63;;;5.03;;
7683;SDS011;3884;48.616;12.872;2023-02-28T00:17:29;6.67;;;5.20;;
7683;SDS011;3884;48.616;12.872;2023-02-28T00:19:56;5.37;;;4.87;;
7683;SDS011;3884;48.616;12.872;2023-02-28T00:22:26;5.43;;;4.77;;
7683;SDS011;3884;48.616;12.872;2023-02-28T00:24:54;6.53;;;5.43;;
7683;SDS011;3884;48.616;12.872;2023-02-28T00:27:21;5.87;;;5.30;;
7683;SDS011;3884;48.616;12.872;2023-02-28T00:29:49;5.70;;;5.10;;
7683;SDS011;3884;48.616;12.872;2023-02-28T00:32:16;5.90;;;5.23;;
7683;SDS011;3884;48.616;12.872;2023-02-28T00:34:44;6.43;;;5.30;;
7683;SDS011;3884;48.616;12.872;2023-02-28T00:37:11;6.13;;;5.40;;
7683;SDS011;3884;48.616;12.872;2023-02-28T00:39:38;6.43;;;5.67;;
7683;SDS011;3884;48.616;12.872;2023-02-28T00:42:06;6.17;;;5.57;;
7683;SDS011;3884;48.616;12.872;2023-02-28T00:44:33;6.13;;;5.53;;
7683;SDS011;3884;48.616;12.872;2023-02-28T00:47:02;6.60;;;5.60;;
7683;SDS011;3884;48.616;12.872;2023-02-28T00:49:29;6.77;;;5.93;;
7683;SDS011;3884;48.616;12.872;2023-02-28T00:51:56;7.33;;;6.23;;
7683;SDS011;3884;48.616;12.872;2023-02-28T00:54:25;6.60;;;5.60;;
7683;SDS011;3884;48.616;12.872;2023-02-28T00:56:52;6.60;;;5.87;;
7683;SDS011;3884;48.616;12.872;2023-02-28T00:59:20;7.23;;;6.37;;
7683;SDS011;3884;48.616;12.872;2023-02-28T01:01:47;7.00;;;6.30;;
7683;SDS011;3884;48.616;12.872;2023-02-28T01:04:15;8.07;;;6.27;;
7683;SDS011;3884;48.616;12.872;2023-02-28T01:06:42;6.80;;;6.20;;
7683;SDS011;3884;48.616;12.872;2023-02-28T01:09:10;9.03;;;6.07;;
7683;SDS011;3884;48.616;12.872;2023-02-28T01:11:37;7.67;;;6.43;;
7683;SDS011;3884;48.616;12.872;2023-02-28T01:14:06;8.50;;;6.50;;
7683;SDS011;3884;48.616;12.872;2023-02-28T01:16:36;6.93;;;6.23;;
7683;SDS011;3884;48.616;12.872;2023-02-28T01:19:03;7.70;;;6.90;;
7683;SDS011;3884;48.616;12.872;2023-02-28T01:21:31;8.00;;;7.20;;
7683;SDS011;3884;48.616;12.872;2023-02-28T01:24:00;6.97;;;6.20;;
7683;SDS011;3884;48.616;12.872;2023-02-28T01:26:27;7.70;;;6.90;;
7683;SDS011;3884;48.616;12.872;2023-02-28T01:28:54;8.77;;;6.97;;
7683;SDS011;3884;48.616;12.872;2023-02-28T01:31:22;8.60;;;7.70;;
7683;SDS011;3884;48.616;12.872;2023-02-28T01:33:49;7.20;;;6.50;;
7683;SDS011;3884;48.616;12.872;2023-02-28T01:36:17;8.20;;;7.10;;
7683;SDS011;3884;48.616;12.872;2023-02-28T01:38:48;7.93;;;7.13;;
7683;SDS011;3884;48.616;12.872;2023-02-28T01:41:16;9.47;;;7.83;;
7683;SDS011;3884;48.616;12.872;2023-02-28T01:43:53;8.60;;;7.80;;
7683;SDS011;3884;48.616;12.872;2023-02-28T01:46:28;8.93;;;7.70;;
7683;SDS011;3884;48.616;12.872;2023-02-28T01:48:58;8.70;;;7.80;;
7683;SDS011;3884;48.616;12.872;2023-02-28T01:51:31;8.53;;;7.67;;
7683;SDS011;3884;48.616;12.872;2023-02-28T01:54:05;9.03;;;8.10;;
7683;SDS011;3884;48.616;12.872;2023-02-28T01:56:39;9.40;;;8.13;;
7683;SDS011;3884;48.616;12.872;2023-02-28T01:59:11;8.93;;;8.03;;
7683;SDS011;3884;48.616;12.872;2023-02-28T02:01:41;9.07;;;8.13;;
7683;SDS011;3884;48.616;12.872;2023-02-28T02:04:08;9.57;;;8.17;;
7683;SDS011;3884;48.616;12.872;2023-02-28T02:06:38;9.20;;;8.30;;
7683;SDS011;3884;48.616;12.872;2023-02-28T02:09:11;9.87;;;8.70;;
7683;SDS011;3884;48.616;12.872;2023-02-28T02:11:39;9.63;;;8.63;;
7683;SDS011;3884;48.616;12.872;2023-02-28T02:17:05;9.47;;;8.37;;
7683;SDS011;3884;48.616;12.872;2023-02-28T02:19:56;9.37;;;8.37;;
7683;SDS011;3884;48.616;12.872;2023-02-28T02:25:54;9.80;;;8.80;;
7683;SDS011;3884;48.616;12.872;2023-02-28T02:28:40;9.90;;;9.00;;
7683;SDS011;3884;48.616;12.872;2023-02-28T02:34:41;10.63;;;9.23;;
7683;SDS011;3884;48.616;12.872;2023-02-28T02:37:15;10.50;;;9.27;;
7683;SDS011;3884;48.616;12.872;2023-02-28T02:39:55;11.67;;;9.67;;
7683;SDS011;3884;48.616;12.872;2023-02-28T02:42:27;10.70;;;9.37;;
7683;SDS011;3884;48.616;12.872;2023-02-28T02:45:03;10.80;;;9.40;;
7683;SDS011;3884;48.616;12.872;2023-02-28T02:47:35;10.53;;;9.43;;
7683;SDS011;3884;48.616;12.872;2023-02-28T02:50:06;10.90;;;9.80;;
7683;SDS011;3884;48.616;12.872;2023-02-28T02:52:38;10.43;;;9.30;;
7683;SDS011;3884;48.616;12.872;2023-02-28T02:55:09;11.73;;;9.23;;
7683;SDS011;3884;48.616;12.872;2023-02-28T02:57:40;10.17;;;9.17;;
7683;SDS011;3884;48.616;12.872;2023-02-28T03:00:13;9.77;;;8.87;;
7683;SDS011;3884;48.616;12.872;2023-02-28T03:02:43;11.63;;;9.67;;
7683;SDS011;3884;48.616;12.872;2023-02-28T03:05:14;10.20;;;9.20;;
7683;SDS011;3884;48.616;12.872;2023-02-28T03:07:47;9.90;;;8.90;;
7683;SDS011;3884;48.616;12.872;2023-02-28T03:10:27;10.57;;;9.27;;
7683;SDS011;3884;48.616;12.872;2023-02-28T03:13:00;10.63;;;9.53;;
7683;SDS011;3884;48.616;12.872;2023-02-28T03:16:05;10.97;;;9.37;;
7683;SDS011;3884;48.616;12.872;2023-02-28T03:18:56;10.30;;;9.30;;
7683;SDS011;3884;48.616;12.872;2023-02-28T03:21:34;10.90;;;9.47;;
7683;SDS011;3884;48.616;12.872;2023-02-28T03:24:05;10.90;;;9.80;;
7683;SDS011;3884;48.616;12.872;2023-02-28T03:26:36;13.17;;;11.03;;
7683;SDS011;3884;48.616;12.872;2023-02-28T03:29:09;15.37;;;13.57;;
7683;SDS011;3884;48.616;12.872;2023-02-28T03:31:47;12.47;;;11.17;;
7683;SDS011;3884;48.616;12.872;2023-02-28T03:34:19;11.53;;;9.67;;
7683;SDS011;3884;48.616;12.872;2023-02-28T03:36:52;11.67;;;10.07;;
7683;SDS011;3884;48.616;12.872;2023-02-28T03:39:23;11.87;;;10.27;;
7683;SDS011;3884;48.616;12.872;2023-02-28T03:41:55;12.00;;;9.90;;
7683;SDS011;3884;48.616;12.872;2023-02-28T03:44:27;11.33;;;10.13;;
7683;SDS011;3884;48.616;12.872;2023-02-28T03:46:59;12.00;;;10.70;;
7683;SDS011;3884;48.616;12.872;2023-02-28T03:49:30;11.03;;;9.93;;
7683;SDS011;3884;48.616;12.872;2023-02-28T03:52:03;9.93;;;8.97;;
7683;SDS011;3884;48.616;12.872;2023-02-28T03:54:34;11.60;;;10.37;;
7683;SDS011;3884;48.616;12.872;2023-02-28T03:57:07;11.63;;;9.77;;
7683;SDS011;3884;48.616;12.872;2023-02-28T03:59:42;10.80;;;9.70;;
7683;SDS011;3884;48.616;12.872;2023-02-28T04:02:13;11.90;;;9.93;;
7683;SDS011;3884;48.616;12.872;2023-02-28T04:04:40;10.47;;;9.37;;
7683;SDS011;3884;48.616;12.872;2023-02-28T04:07:11;11.90;;;10.17;;
7683;SDS011;3884;48.616;12.872;2023-02-28T04:09:38;11.73;;;10.00;;
7683;SDS011;3884;48.616;12.872;2023-02-28T04:12:06;11.10;;;9.87;;
7683;SDS011;3884;48.616;12.872;2023-02-28T04:14:33;11.33;;;9.97;;
7683;SDS011;3884;48.616;12.872;2023-02-28T04:17:00;11.03;;;9.90;;
7683;SDS011;3884;48.616;12.872;2023-02-28T04:19:27;11.83;;;9.93;;
7683;SDS011;3884;48.616;12.872;2023-02-28T04:21:54;11.27;;;10.10;;
7683;SDS011;3884;48.616;12.872;2023-02-28T04:24:23;12.53;;;11.00;;
7683;SDS011;3884;48.616;12.872;2023-02-28T04:26:52;11.70;;;10.27;;
7683;SDS011;3884;48.616;12.872;2023-02-28T04:29:22;11.97;;;10.03;;
7683;SDS011;3884;48.616;12.872;2023-02-28T04:31:50;11.37;;;10.17;;
7683;SDS011;3884;48.616;12.872;2023-02-28T04:34:18;12.40;;;10.73;;
7683;SDS011;3884;48.616;12.872;2023-02-28T04:36:46;12.20;;;10.27;;
7683;SDS011;3884;48.616;12.872;2023-02-28T04:39:18;11.80;;;10.17;;
7683;SDS011;3884;48.616;12.872;2023-02-28T04:41:47;13.43;;;10.50;;
7683;SDS011;3884;48.616;12.872;2023-02-28T04:44:14;12.43;;;11.13;;
7683;SDS011;3884;48.616;12.872;2023-02-28T04:46:41;12.80;;;10.80;;
7683;SDS011;3884;48.616;12.872;2023-02-28T04:49:10;13.47;;;10.80;;
7683;SDS011;3884;48.616;12.872;2023-02-28T04:51:38;12.47;;;10.87;;
7683;SDS011;3884;48.616;12.872;2023-02-28T04:54:05;12.40;;;10.77;;
7683;SDS011;3884;48.616;12.872;2023-02-28T04:56:32;12.80;;;11.00;;
7683;SDS011;3884;48.616;12.872;2023-02-28T04:59:02;11.13;;;9.93;;
7683;SDS011;3884;48.616;12.872;2023-02-28T05:01:30;11.57;;;10.23;;
7683;SDS011;3884;48.616;12.872;2023-02-28T05:03:59;13.43;;;10.50;;
7683;SDS011;3884;48.616;12.872;2023-02-28T05:06:28;12.07;;;10.70;;
7683;SDS011;3884;48.616;12.872;2023-02-28T05:08:56;13.47;;;10.80;;
7683;SDS011;3884;48.616;12.872;2023-02-28T05:11:24;12.73;;;11.13;;
7683;SDS011;3884;48.616;12.872;2023-02-28T05:13:54;11.90;;;10.40;;
7683;SDS011;3884;48.616;12.872;2023-02-28T05:16:22;11.17;;;9.97;;
7683;SDS011;3884;48.616;12.872;2023-02-28T05:18:49;13.23;;;10.80;;
7683;SDS011;3884;48.616;12.872;2023-02-28T05:21:26;11.60;;;10.40;;
7683;SDS011;3884;48.616;12.872;2023-02-28T05:23:55;11.65;;;10.48;;
7683;SDS011;3884;48.616;12.872;2023-02-28T05:26:23;12.40;;;10.63;;
7683;SDS011;3884;48.616;12.872;2023-02-28T05:28:50;12.50;;;10.17;;
7683;SDS011;3884;48.616;12.872;2023-02-28T05:31:17;12.57;;;10.27;;
7683;SDS011;3884;48.616;12.872;2023-02-28T05:33:46;12.00;;;10.70;;
7683;SDS011;3884;48.616;12.872;2023-02-28T05:36:13;10.57;;;9.33;;
7683;SDS011;3884;48.616;12.872;2023-02-28T05:38:40;11.80;;;10.13;;
7683;SDS011;3884;48.616;12.872;2023-02-28T05:41:07;12.53;;;10.87;;
7683;SDS011;3884;48.616;12.872;2023-02-28T05:43:34;11.77;;;10.20;;
7683;SDS011;3884;48.616;12.872;2023-02-28T05:46:03;11.07;;;9.87;;
7683;SDS011;3884;48.616;12.872;2023-02-28T05:48:30;11.43;;;10.10;;
7683;SDS011;3884;48.616;12.872;2023-02-28T05:50:59;13.17;;;10.40;;
7683;SDS011;3884;48.616;12.872;2023-02-28T05:53:27;11.60;;;10.20;;
7683;SDS011;3884;48.616;12.872;2023-02-28T05:55:55;11.03;;;9.33;;
7683;SDS011;3884;48.616;12.872;2023-02-28T05:58:23;11.33;;;9.93;;
7683;SDS011;3884;48.616;12.872;2023-02-28T06:00:54;11.13;;;9.67;;
7683;SDS011;3884;48.616;12.872;2023-02-28T06:03:21;10.63;;;9.53;;
7683;SDS011;3884;48.616;12.872;2023-02-28T06:05:49;10.33;;;9.23;;
7683;SDS011;3884;48.616;12.872;2023-02-28T06:08:17;11.50;;;10.07;;
7683;SDS011;3884;48.616;12.872;2023-02-28T06:10:45;12.73;;;9.67;;
7683;SDS011;3884;48.616;12.872;2023-02-28T06:13:12;11.30;;;9.80;;
7683;SDS011;3884;48.616;12.872;2023-02-28T06:15:39;11.63;;;9.77;;
7683;SDS011;3884;48.616;12.872;2023-02-28T06:18:09;11.80;;;9.87;;
7683;SDS011;3884;48.616;12.872;2023-02-28T06:20:37;11.43;;;10.23;;
7683;SDS011;3884;48.616;12.872;2023-02-28T06:23:04;13.07;;;9.90;;
7683;SDS011;3884;48.616;12.872;2023-02-28T06:25:32;10.40;;;9.23;;
7683;SDS011;3884;48.616;12.872;2023-02-28T06:28:00;11.60;;;9.07;;
7683;SDS011;3884;48.616;12.872;2023-02-28T06:30:27;10.90;;;9.57;;
7683;SDS011;3884;48.616;12.872;2023-02-28T06:32:56;10.37;;;9.20;;
7683;SDS011;3884;48.616;12.872;2023-02-28T06:35:23;12.83;;;9.67;;
7683;SDS011;3884;48.616;12.872;2023-02-28T06:37:50;11.47;;;10.03;;
7683;SDS011;3884;48.616;12.872;2023-02-28T06:40:17;12.17;;;9.43;;
7683;SDS011;3884;48.616;12.872;2023-02-28T06:42:45;11.50;;;10.10;;
7683;SDS011;3884;48.616;12.872;2023-02-28T06:45:12;10.13;;;9.03;;
7683;SDS011;3884;48.616;12.872;2023-02-28T06:47:40;11.03;;;9.07;;
7683;SDS011;3884;48.616;12.872;2023-02-28T06:50:09;11.23;;;9.77;;
7683;SDS011;3884;48.616;12.872;2023-02-28T06:52:38;11.67;;;10.20;;
7683;SDS011;3884;48.616;12.872;2023-02-28T06:55:05;12.87;;;11.47;;
7683;SDS011;3884;48.616;12.872;2023-02-28T06:57:33;13.17;;;11.73;;
7683;SDS011;3884;48.616;12.872;2023-02-28T07:00:04;15.17;;;12.00;;
7683;SDS011;3884;48.616;12.872;2023-02-28T07:02:33;15.10;;;13.07;;
7683;SDS011;3884;48.616;12.872;2023-02-28T07:05:00;13.23;;;10.70;;
7683;SDS011;3884;48.616;12.872;2023-02-28T07:07:28;11.77;;;10.37;;
7683;SDS011;3884;48.616;12.872;2023-02-28T07:09:54;11.73;;;9.43;;
7683;SDS011;3884;48.616;12.872;2023-02-28T07:12:22;11.63;;;10.10;;
7683;SDS011;3884;48.616;12.872;2023-02-28T07:14:49;14.83;;;11.63;;
7683;SDS011;3884;48.616;12.872;2023-02-28T07:17:17;17.20;;;13.43;;
7683;SDS011;3884;48.616;12.872;2023-02-28T07:19:44;19.03;;;14.43;;
7683;SDS011;3884;48.616;12.872;2023-02-28T07:22:11;20.37;;;15.83;;
7683;SDS011;3884;48.616;12.872;2023-02-28T07:24:38;16.80;;;11.57;;
7683;SDS011;3884;48.616;12.872;2023-02-28T07:27:05;13.70;;;12.00;;
7683;SDS011;3884;48.616;12.872;2023-02-28T07:29:32;12.60;;;9.73;;
7683;SDS011;3884;48.616;12.872;2023-02-28T07:31:59;11.30;;;9.30;;
7683;SDS011;3884;48.616;12.872;2023-02-28T07:34:28;12.43;;;9.50;;
7683;SDS011;3884;48.616;12.872;2023-02-28T07:36:55;10.10;;;8.63;;
7683;SDS011;3884;48.616;12.872;2023-02-28T07:39:22;11.07;;;9.67;;
7683;SDS011;3884;48.616;12.872;2023-02-28T07:41:49;10.83;;;9.37;;
7683;SDS011;3884;48.616;12.872;2023-02-28T07:44:16;11.60;;;10.00;;
7683;SDS011;3884;48.616;12.872;2023-02-28T07:46:43;10.90;;;9.80;;
7683;SDS011;3884;48.616;12.872;2023-02-28T07:49:10;10.57;;;8.47;;
7683;SDS011;3884;48.616;12.872;2023-02-28T07:51:39;12.33;;;9.13;;
7683;SDS011;3884;48.616;12.872;2023-02-28T07:54:06;10.33;;;8.37;;
7683;SDS011;3884;48.616;12.872;2023-02-28T07:56:33;11.77;;;8.23;;
7683;SDS011;3884;48.616;12.872;2023-02-28T07:59:00;10.97;;;8.77;;
7683;SDS011;3884;48.616;12.872;2023-02-28T08:01:27;11.07;;;9.30;;
7683;SDS011;3884;48.616;12.872;2023-02-28T08:03:54;10.77;;;8.73;;
7683;SDS011;3884;48.616;12.872;2023-02-28T08:06:23;11.90;;;8.70;;
7683;SDS011;3884;48.616;12.872;2023-02-28T08:08:52;11.40;;;8.27;;
7683;SDS011;3884;48.616;12.872;2023-02-28T08:11:21;10.80;;;8.30;;
7683;SDS011;3884;48.616;12.872;2023-02-28T08:13:48;11.10;;;8.40;;
7683;SDS011;3884;48.616;12.872;2023-02-28T08:16:16;10.93;;;8.63;;
7683;SDS011;3884;48.616;12.872;2023-02-28T08:18:47;12.27;;;10.07;;
7683;SDS011;3884;48.616;12.872;2023-02-28T08:21:14;10.70;;;8.30;;
7683;SDS011;3884;48.616;12.872;2023-02-28T08:23:41;11.77;;;8.43;;
7683;SDS011;3884;48.616;12.872;2023-02-28T08:26:10;9.30;;;8.33;;
7683;SDS011;3884;48.616;12.872;2023-02-28T08:28:37;13.63;;;8.97;;
7683;SDS011;3884;48.616;12.872;2023-02-28T08:31:07;10.47;;;8.57;;
7683;SDS011;3884;48.616;12.872;2023-02-28T08:33:35;10.77;;;8.63;;
7683;SDS011;3884;48.616;12.872;2023-02-28T08:36:04;12.57;;;8.40;;
7683;SDS011;3884;48.616;12.872;2023-02-28T08:38:32;12.67;;;10.97;;
7683;SDS011;3884;48.616;12.872;2023-02-28T08:40:59;11.73;;;9.27;;
7683;SDS011;3884;48.616;12.872;2023-02-28T08:43:29;12.60;;;11.23;;
7683;SDS011;3884;48.616;12.872;2023-02-28T08:45:56;10.90;;;9.43;;
7683;SDS011;3884;48.616;12.872;2023-02-28T08:48:23;13.23;;;11.70;;
7683;SDS011;3884;48.616;12.872;2023-02-28T08:50:54;10.53;;;8.67;;
7683;SDS011;3884;48.616;12.872;2023-02-28T08:53:22;10.93;;;8.30;;
7683;SDS011;3884;48.616;12.872;2023-02-28T08:55:55;12.33;;;9.30;;
7683;SDS011;3884;48.616;12.872;2023-02-28T08:58:23;11.50;;;9.00;;
7683;SDS011;3884;48.616;12.872;2023-02-28T09:00:52;10.07;;;8.67;;
7683;SDS011;3884;48.616;12.872;2023-02-28T09:03:19;10.53;;;8.43;;
7683;SDS011;3884;48.616;12.872;2023-02-28T09:05:54;12.47;;;9.00;;
7683;SDS011;3884;48.616;12.872;2023-02-28T09:08:22;12.73;;;9.40;;
7683;SDS011;3884;48.616;12.872;2023-02-28T09:10:49;10.67;;;8.63;;
7683;SDS011;3884;48.616;12.872;2023-02-28T09:13:17;11.23;;;9.23;;
7683;SDS011;3884;48.616;12.872;2023-02-28T09:15:45;9.73;;;8.57;;
7683;SDS011;3884;48.616;12.872;2023-02-28T09:18:14;10.80;;;8.73;;
7683;SDS011;3884;48.616;12.872;2023-02-28T09:20:41;11.50;;;9.10;;
7683;SDS011;3884;48.616;12.872;2023-02-28T09:23:09;11.53;;;8.63;;
7683;SDS011;3884;48.616;12.872;2023-02-28T09:25:44;10.40;;;8.93;;
7683;SDS011;3884;48.616;12.872;2023-02-28T09:28:11;8.97;;;8.07;;
7683;SDS011;3884;48.616;12.872;2023-02-28T09:30:39;11.40;;;8.70;;
7683;SDS011;3884;48.616;12.872;2023-02-28T09:33:06;10.83;;;8.63;;
7683;SDS011;3884;48.616;12.872;2023-02-28T09:35:34;11.13;;;8.90;;
7683;SDS011;3884;48.616;12.872;2023-02-28T09:38:03;10.43;;;8.13;;
7683;SDS011;3884;48.616;12.872;2023-02-28T09:40:30;9.90;;;8.17;;
7683;SDS011;3884;48.616;12.872;2023-02-28T09:42:57;13.33;;;9.10;;
7683;SDS011;3884;48.616;12.872;2023-02-28T09:45:28;11.67;;;8.90;;
7683;SDS011;3884;48.616;12.872;2023-02-28T09:47:59;11.57;;;9.20;;
7683;SDS011;3884;48.616;12.872;2023-02-28T09:50:32;13.13;;;9.37;;
7683;SDS011;3884;48.616;12.872;2023-02-28T09:53:03;10.53;;;9.27;;
7683;SDS011;3884;48.616;12.872;2023-02-28T09:55:42;11.83;;;9.17;;
7683;SDS011;3884;48.616;12.872;2023-02-28T09:58:14;10.73;;;9.07;;
7683;SDS011;3884;48.616;12.872;2023-02-28T10:00:46;10.67;;;8.27;;
7683;SDS011;3884;48.616;12.872;2023-02-28T10:03:27;12.50;;;8.87;;
7683;SDS011;3884;48.616;12.872;2023-02-28T10:06:01;11.53;;;8.23;;
7683;SDS011;3884;48.616;12.872;2023-02-28T10:08:36;14.60;;;8.70;;
7683;SDS011;3884;48.616;12.872;2023-02-28T10:11:11;9.67;;;8.63;;
7683;SDS011;3884;48.616;12.872;2023-02-28T10:13:46;11.53;;;9.63;;
7683;SDS011;3884;48.616;12.872;2023-02-28T10:16:21;10.93;;;8.70;;
7683;SDS011;3884;48.616;12.872;2023-02-28T10:18:54;11.37;;;8.33;;
7683;SDS011;3884;48.616;12.872;2023-02-28T10:21:27;10.20;;;8.27;;
7683;SDS011;3884;48.616;12.872;2023-02-28T10:24:03;9.93;;;8.57;;
7683;SDS011;3884;48.616;12.872;2023-02-28T10:26:37;10.90;;;8.40;;
7683;SDS011;3884;48.616;12.872;2023-02-28T10:29:04;10.60;;;8.27;;
7683;SDS011;3884;48.616;12.872;2023-02-28T10:31:34;11.33;;;8.53;;
7683;SDS011;3884;48.616;12.872;2023-02-28T10:34:01;13.77;;;8.47;;
7683;SDS011;3884;48.616;12.872;2023-02-28T10:36:30;9.53;;;7.90;;
7683;SDS011;3884;48.616;12.872;2023-02-28T10:38:58;14.27;;;9.63;;
7683;SDS011;3884;48.616;12.872;2023-02-28T10:41:29;11.13;;;8.17;;
7683;SDS011;3884;48.616;12.872;2023-02-28T10:44:12;10.30;;;8.23;;
7683;SDS011;3884;48.616;12.872;2023-02-28T10:46:41;12.20;;;9.20;;
7683;SDS011;3884;48.616;12.872;2023-02-28T10:49:13;10.63;;;8.53;;
7683;SDS011;3884;48.616;12.872;2023-02-28T10:51:44;10.87;;;8.20;;
7683;SDS011;3884;48.616;12.872;2023-02-28T10:54:17;10.30;;;8.80;;
7683;SDS011;3884;48.616;12.872;2023-02-28T10:56:45;10.37;;;8.67;;
7683;SDS011;3884;48.616;12.872;2023-02-28T10:59:33;11.03;;;8.73;;
7683;SDS011;3884;48.616;12.872;2023-02-28T11:02:01;11.23;;;8.67;;
7683;SDS011;3884;48.616;12.872;2023-02-28T11:04:32;11.03;;;8.77;;
7683;SDS011;3884;48.616;12.872;2023-02-28T11:07:05;9.93;;;8.17;;
7683;SDS011;3884;48.616;12.872;2023-02-28T11:09:46;10.73;;;8.53;;
7683;SDS011;3884;48.616;12.872;2023-02-28T11:12:26;12.57;;;9.27;;
7683;SDS011;3884;48.616;12.872;2023-02-28T11:14:55;11.80;;;9.70;;
7683;SDS011;3884;48.616;12.872;2023-02-28T11:17:26;10.23;;;8.57;;
7683;SDS011;3884;48.616;12.872;2023-02-28T11:19:55;13.77;;;10.40;;
7683;SDS011;3884;48.616;12.872;2023-02-28T11:22:26;10.87;;;9.13;;
7683;SDS011;3884;48.616;12.872;2023-02-28T11:24:56;11.40;;;8.97;;
7683;SDS011;3884;48.616;12.872;2023-02-28T11:27:26;12.27;;;9.50;;
7683;SDS011;3884;48.616;12.872;2023-02-28T11:30:26;10.10;;;8.90;;
7683;SDS011;3884;48.616;12.872;2023-02-28T11:32:59;13.47;;;9.97;;
7683;SDS011;3884;48.616;12.872;2023-02-28T11:35:28;12.03;;;9.60;;
7683;SDS011;3884;48.616;12.872;2023-02-28T11:38:01;10.23;;;9.10;;
7683;SDS011;3884;48.616;12.872;2023-02-28T11:40:30;11.83;;;9.50;;
7683;SDS011;3884;48.616;12.872;2023-02-28T11:43:06;10.67;;;9.37;;
7683;SDS011;3884;48.616;12.872;2023-02-28T11:45:44;10.53;;;8.80;;
7683;SDS011;3884;48.616;12.872;2023-02-28T11:48:21;11.83;;;9.60;;
7683;SDS011;3884;48.616;12.872;2023-02-28T11:50:55;13.93;;;10.17;;
7683;SDS011;3884;48.616;12.872;2023-02-28T11:53:41;13.17;;;9.87;;
7683;SDS011;3884;48.616;12.872;2023-02-28T11:56:25;12.43;;;10.07;;
7683;SDS011;3884;48.616;12.872;2023-02-28T11:59:01;10.90;;;9.47;;
7683;SDS011;3884;48.616;12.872;2023-02-28T12:01:54;13.00;;;10.50;;
7683;SDS011;3884;48.616;12.872;2023-02-28T12:04:33;13.23;;;10.33;;
7683;SDS011;3884;48.616;12.872;2023-02-28T12:07:09;12.63;;;9.87;;
7683;SDS011;3884;48.616;12.872;2023-02-28T12:09:50;11.60;;;9.93;;
7683;SDS011;3884;48.616;12.872;2023-02-28T12:12:29;14.00;;;9.87;;
7683;SDS011;3884;48.616;12.872;2023-02-28T12:18:09;11.50;;;9.73;;
7683;SDS011;3884;48.616;12.872;2023-02-28T12:20:49;12.47;;;10.53;;
7683;SDS011;3884;48.616;12.872;2023-02-28T12:23:40;12.77;;;10.03;;
7683;SDS011;3884;48.616;12.872;2023-02-28T12:26:21;13.07;;;10.60;;
7683;SDS011;3884;48.616;12.872;2023-02-28T12:28:59;11.30;;;9.67;;
7683;SDS011;3884;48.616;12.872;2023-02-28T12:31:31;15.33;;;10.87;;
7683;SDS011;3884;48.616;12.872;2023-02-28T12:34:03;13.00;;;11.17;;
7683;SDS011;3884;48.616;12.872;2023-02-28T12:36:32;13.43;;;11.07;;
7683;SDS011;3884;48.616;12.872;2023-02-28T12:39:02;11.67;;;9.83;;
7683;SDS011;3884;48.616;12.872;2023-02-28T12:41:36;11.57;;;9.73;;
7683;SDS011;3884;48.616;12.872;2023-02-28T12:44:08;12.77;;;10.97;;
7683;SDS011;3884;48.616;12.872;2023-02-28T12:46:40;16.33;;;10.50;;
7683;SDS011;3884;48.616;12.872;2023-02-28T12:49:12;12.97;;;10.77;;
7683;SDS011;3884;48.616;12.872;2023-02-28T12:51:42;12.57;;;9.73;;
7683;SDS011;3884;48.616;12.872;2023-02-28T12:54:12;14.33;;;10.57;;
7683;SDS011;3884;48.616;12.872;2023-02-28T12:56:49;11.90;;;10.10;;
7683;SDS011;3884;48.616;12.872;2023-02-28T12:59:30;11.27;;;10.13;;
7683;SDS011;3884;48.616;12.872;2023-02-28T13:02:13;12.60;;;9.87;;
7683;SDS011;3884;48.616;12.872;2023-02-28T13:05:06;10.20;;;9.10;;
7683;SDS011;3884;48.616;12.872;2023-02-28T13:08:04;12.97;;;10.47;;
7683;SDS011;3884;48.616;12.872;2023-02-28T13:10:48;12.17;;;10.57;;
7683;SDS011;3884;48.616;12.872;2023-02-28T13:13:21;12.13;;;9.80;;
7683;SDS011;3884;48.616;12.872;2023-02-28T13:15:58;12.30;;;10.77;;
7683;SDS011;3884;48.616;12.872;2023-02-28T13:18:31;13.57;;;10.73;;
7683;SDS011;3884;48.616;12.872;2023-02-28T13:21:03;11.80;;;10.20;;
7683;SDS011;3884;48.616;12.872;2023-02-28T13:23:39;16.23;;;12.07;;
7683;SDS011;3884;48.616;12.872;2023-02-28T13:29:31;13.17;;;11.30;;
7683;SDS011;3884;48.616;12.872;2023-02-28T13:32:19;14.30;;;10.80;;
7683;SDS011;3884;48.616;12.872;2023-02-28T13:44:09;12.67;;;11.07;;
7683;SDS011;3884;48.616;12.872;2023-02-28T13:49:55;13.23;;;10.23;;
7683;SDS011;3884;48.616;12.872;2023-02-28T13:52:46;12.07;;;10.57;;
7683;SDS011;3884;48.616;12.872;2023-02-28T13:55:24;13.17;;;10.73;;
7683;SDS011;3884;48.616;12.872;2023-02-28T13:58:00;13.23;;;10.87;;
7683;SDS011;3884;48.616;12.872;2023-02-28T14:00:57;13.00;;;10.40;;
7683;SDS011;3884;48.616;12.872;2023-02-28T14:03:42;11.67;;;10.37;;
7683;SDS011;3884;48.616;12.872;2023-02-28T14:06:23;11.93;;;10.37;;
7683;SDS011;3884;48.616;12.872;2023-02-28T14:08:55;14.17;;;10.87;;
7683;SDS011;3884;48.616;12.872;2023-02-28T14:11:26;12.37;;;10.60;;
7683;SDS011;3884;48.616;12.872;2023-02-28T14:13:55;14.07;;;10.97;;
7683;SDS011;3884;48.616;12.872;2023-02-28T14:16:23;12.73;;;10.23;;
7683;SDS011;3884;48.616;12.872;2023-02-28T14:18:56;12.53;;;10.40;;
7683;SDS011;3884;48.616;12.872;2023-02-28T14:21:27;14.70;;;10.97;;
7683;SDS011;3884;48.616;12.872;2023-02-28T14:27:15;12.37;;;10.57;;
7683;SDS011;3884;48.616;12.872;2023-02-28T14:30:07;16.47;;;11.60;;
7683;SDS011;3884;48.616;12.872;2023-02-28T14:32:59;11.27;;;10.03;;
7683;SDS011;3884;48.616;12.872;2023-02-28T14:35:46;12.23;;;10.40;;
7683;SDS011;3884;48.616;12.872;2023-02-28T14:38:28;14.73;;;11.73;;
7683;SDS011;3884;48.616;12.872;2023-02-28T14:40:58;13.03;;;11.20;;
7683;SDS011;3884;48.616;12.872;2023-02-28T14:43:29;13.07;;;10.77;;
7683;SDS011;3884;48.616;12.872;2023-02-28T14:45:58;14.57;;;12.00;;
7683;SDS011;3884;48.616;12.872;2023-02-28T14:48:27;14.50;;;11.50;;
7683;SDS011;3884;48.616;12.872;2023-02-28T14:50:56;13.37;;;10.87;;
7683;SDS011;3884;48.616;12.872;2023-02-28T14:53:25;13.50;;;11.73;;
7683;SDS011;3884;48.616;12.872;2023-02-28T14:55:55;16.63;;;12.93;;
7683;SDS011;3884;48.616;12.872;2023-02-28T14:58:23;12.87;;;11.27;;
7683;SDS011;3884;48.616;12.872;2023-02-28T15:00:53;13.13;;;11.00;;
7683;SDS011;3884;48.616;12.872;2023-02-28T15:03:22;15.30;;;11.90;;
7683;SDS011;3884;48.616;12.872;2023-02-28T15:05:58;17.53;;;11.80;;
7683;SDS011;3884;48.616;12.872;2023-02-28T15:08:27;14.37;;;11.23;;
7683;SDS011;3884;48.616;12.872;2023-02-28T15:10:55;14.53;;;11.23;;
7683;SDS011;3884;48.616;12.872;2023-02-28T15:13:26;18.03;;;12.80;;
7683;SDS011;3884;48.616;12.872;2023-02-28T15:15:59;13.50;;;11.70;;
7683;SDS011;3884;48.616;12.872;2023-02-28T15:18:31;16.43;;;12.07;;
7683;SDS011;3884;48.616;12.872;2023-02-28T15:21:06;14.47;;;12.00;;
7683;SDS011;3884;48.616;12.872;2023-02-28T15:23:34;15.47;;;13.03;;
7683;SDS011;3884;48.616;12.872;2023-02-28T15:26:03;15.77;;;12.47;;
7683;SDS011;3884;48.616;12.872;2023-02-28T15:28:31;16.40;;;13.43;;
7683;SDS011;3884;48.616;12.872;2023-02-28T15:30:59;16.40;;;12.60;;
7683;SDS011;3884;48.616;12.872;2023-02-28T15:33:28;18.03;;;12.93;;
7683;SDS011;3884;48.616;12.872;2023-02-28T15:36:03;15.07;;;12.40;;
7683;SDS011;3884;48.616;12.872;2023-02-28T15:38:39;13.93;;;11.93;;
7683;SDS011;3884;48.616;12.872;2023-02-28T15:41:20;14.30;;;12.10;;